Time;durP1;ratioP1;P1;durP2;ratioP2;P2;SDS_P1;SDS_P2;PMS_P1;PMS_P2;Temp;Humidity;BMP_temperature;BMP_pressure;BME280_temperature;BME280_humidity;BME280_pressure;Samples;Min_cycle;Max_cycle;Signal;HPM_P1;HPM_P2
2023/08/30 00:01:01;;;;;;;2.78;1.55;;;;;;;22.73;48.21;100937.38;5022069;28;20081;-37
2023/08/30 00:03:28;;;;;;;2.25;1.63;;;;;;;22.71;48.56;100930.47;5023919;28;20080;-37
2023/08/30 00:05:55;;;;;;;3.53;1.73;;;;;;;22.70;48.65;100928.81;5019860;28;20053;-37
2023/08/30 00:08:22;;;;;;;2.15;1.60;;;;;;;22.70;48.73;100939.59;5020968;28;20088;-37
2023/08/30 00:10:48;;;;;;;1.73;1.48;;;;;;;22.69;48.33;100927.97;5022382;28;20049;-37
2023/08/30 00:13:15;;;;;;;2.35;1.70;;;;;;;22.67;48.53;100930.88;5023711;28;20052;-37
2023/08/30 00:15:42;;;;;;;1.75;1.33;;;;;;;22.67;48.45;100933.56;5021450;28;20160;-37
2023/08/30 00:18:09;;;;;;;2.47;1.38;;;;;;;22.66;48.57;100926.47;5019644;28;20046;-37
2023/08/30 00:20:36;;;;;;;1.40;1.25;;;;;;;22.66;48.68;100921.06;5021089;28;20050;-37
2023/08/30 00:23:03;;;;;;;2.33;1.58;;;;;;;22.65;48.45;100919.38;5021235;28;20332;-37
2023/08/30 00:25:29;;;;;;;2.20;1.65;;;;;;;22.66;48.67;100915.66;5025294;28;20140;-37
2023/08/30 00:27:56;;;;;;;4.13;1.67;;;;;;;22.66;48.61;100912.13;5026638;28;20053;-37
2023/08/30 00:30:23;;;;;;;1.98;1.35;;;;;;;22.65;48.48;100911.28;5030348;28;20057;-37
2023/08/30 00:32:49;;;;;;;2.88;1.67;;;;;;;22.64;48.75;100909.59;5021942;28;20049;-37
2023/08/30 00:35:16;;;;;;;2.15;1.30;;;;;;;22.64;48.29;100906.06;5024016;28;20045;-37
2023/08/30 00:37:42;;;;;;;2.15;1.25;;;;;;;22.63;48.86;100902.53;5021941;28;20053;-37
2023/08/30 00:40:09;;;;;;;2.42;1.50;;;;;;;22.62;48.77;100905.41;5019465;28;20049;-37
2023/08/30 00:42:36;;;;;;;2.35;1.60;;;;;;;22.62;48.56;100900.81;5021918;28;20104;-37
2023/08/30 00:45:04;;;;;;;2.25;1.60;;;;;;;22.61;48.73;100895.63;5024235;28;20104;-37
2023/08/30 00:47:30;;;;;;;1.55;1.25;;;;;;;22.61;48.49;100898.31;5020705;28;20050;-37
2023/08/30 00:49:57;;;;;;;2.35;1.65;;;;;;;22.60;48.47;100892.09;5022981;28;20128;-37
2023/08/30 00:52:24;;;;;;;1.75;1.55;;;;;;;22.60;48.58;100899.34;5018458;28;20153;-37
2023/08/30 00:54:51;;;;;;;2.30;1.45;;;;;;;22.58;48.50;100894.09;5021405;28;20507;-37
2023/08/30 00:57:17;;;;;;;2.05;1.42;;;;;;;22.57;48.33;100887.03;5021327;28;20041;-37
2023/08/30 00:59:44;;;;;;;2.92;1.88;;;;;;;22.57;48.41;100889.72;5021516;28;20167;-37
2023/08/30 01:02:12;;;;;;;2.80;1.92;;;;;;;22.56;48.74;100882.66;5021996;28;20168;-36
2023/08/30 01:04:38;;;;;;;2.35;1.63;;;;;;;22.55;48.67;100889.09;5021315;28;20049;-37
2023/08/30 01:07:05;;;;;;;3.78;1.73;;;;;;;22.54;48.80;100884.69;5022747;28;20052;-37
2023/08/30 01:09:32;;;;;;;2.22;1.70;;;;;;;22.53;48.67;100882.19;5019254;28;20128;-37
2023/08/30 01:12:08;;;;;;;2.55;1.65;;;;;;;22.52;48.40;100877.81;5025973;28;20049;-37
2023/08/30 01:14:57;;;;;;;2.50;1.90;;;;;;;22.51;48.25;100876.09;5022315;28;20053;-37
2023/08/30 01:17:25;;;;;;;2.05;1.42;;;;;;;22.53;48.55;100874.91;5021552;28;20107;-37
2023/08/30 01:19:59;;;;;;;2.35;1.83;;;;;;;22.51;48.61;100873.41;5023939;28;20140;-37
2023/08/30 01:22:40;;;;;;;2.40;1.63;;;;;;;22.48;48.47;100871.94;5022068;28;20127;-37
2023/08/30 01:25:23;;;;;;;1.90;1.42;;;;;;;22.48;48.29;100877.34;5018985;28;20323;-37
2023/08/30 01:27:52;;;;;;;1.92;1.40;;;;;;;22.49;48.28;100873.59;5022068;28;20148;-36
2023/08/30 01:30:20;;;;;;;2.63;1.70;;;;;;;22.48;48.54;100877.34;5020925;28;20060;-37
2023/08/30 01:32:48;;;;;;;2.25;1.40;;;;;;;22.49;48.31;100878.16;5017648;28;20049;-37
2023/08/30 01:35:17;;;;;;;2.05;1.50;;;;;;;22.48;48.52;100873.81;5017075;28;20050;-37
2023/08/30 01:37:46;;;;;;;1.65;1.30;;;;;;;22.48;48.46;100874.63;5017130;28;20144;-37
2023/08/30 01:40:15;;;;;;;2.70;1.48;;;;;;;22.46;48.59;100876.66;5021200;28;20053;-37
2023/08/30 01:42:44;;;;;;;2.05;1.55;;;;;;;22.45;48.47;100869.59;5020805;28;20124;-37
2023/08/30 01:45:13;;;;;;;2.75;1.90;;;;;;;22.45;47.94;100866.06;5020615;28;20053;-37
2023/08/30 01:47:43;;;;;;;2.40;1.60;;;;;;;22.44;48.62;100862.50;5022019;28;20062;-37
2023/08/30 01:50:12;;;;;;;3.13;1.98;;;;;;;22.44;48.33;100859.81;5022177;28;20054;-37
2023/08/30 01:52:40;;;;;;;3.40;1.60;;;;;;;22.42;48.52;100857.28;5019800;28;20376;-37
2023/08/30 01:55:08;;;;;;;4.63;2.33;;;;;;;22.43;48.58;100855.41;5021374;28;20135;-37
2023/08/30 01:57:35;;;;;;;3.13;1.90;;;;;;;22.42;48.64;100853.75;5025257;28;20148;-37
2023/08/30 02:00:02;;;;;;;2.00;1.80;;;;;;;22.41;48.45;100852.91;5025040;28;20045;-37
2023/08/30 02:02:33;;;;;;;2.97;1.48;;;;;;;22.40;48.53;100851.22;5023069;28;20046;-37
2023/08/30 02:04:59;;;;;;;2.22;1.50;;;;;;;22.39;48.10;100846.88;5023216;28;20136;-37
2023/08/30 02:07:38;;;;;;;2.47;1.75;;;;;;;22.38;48.50;100844.31;5025531;28;20053;-37
2023/08/30 02:10:17;;;;;;;3.08;1.63;;;;;;;22.38;48.34;100844.31;5024013;28;20521;-37
2023/08/30 02:12:48;;;;;;;2.45;1.50;;;;;;;22.38;48.57;100844.31;5021369;28;20069;-37
2023/08/30 02:15:18;;;;;;;2.65;1.88;;;;;;;22.37;48.71;100839.94;5021520;28;20048;-37
2023/08/30 02:17:46;;;;;;;3.08;1.40;;;;;;;22.36;48.33;100841.81;5020171;28;20654;-37
2023/08/30 02:20:13;;;;;;;3.30;1.60;;;;;;;22.36;48.71;100840.97;5020073;28;20056;-37
2023/08/30 02:22:39;;;;;;;1.88;1.25;;;;;;;22.35;48.39;100841.97;5018045;28;20657;-37
2023/08/30 02:25:07;;;;;;;2.53;2.08;;;;;;;22.34;48.41;100840.31;5019160;28;20084;-37
2023/08/30 02:27:37;;;;;;;3.15;1.85;;;;;;;22.34;48.46;100840.31;5023031;28;20123;-37
2023/08/30 02:30:04;;;;;;;2.30;1.88;;;;;;;22.33;48.42;100841.34;5022196;28;20433;-37
2023/08/30 02:32:31;;;;;;;1.73;1.50;;;;;;;22.32;48.48;100848.59;5021515;28;20375;-36
2023/08/30 02:34:57;;;;;;;3.03;1.90;;;;;;;22.32;48.74;100843.19;5026775;28;20046;-36
2023/08/30 02:37:24;;;;;;;2.60;2.00;;;;;;;22.31;48.49;100837.97;5025573;28;20072;-37
2023/08/30 02:39:51;;;;;;;3.00;2.17;;;;;;;22.29;48.44;100831.94;5023500;28;20045;-36
2023/08/30 02:42:18;;;;;;;2.95;1.75;;;;;;;22.30;48.30;100828.19;5026010;28;20178;-37
2023/08/30 02:44:44;;;;;;;2.80;2.05;;;;;;;22.29;48.29;100831.94;5027792;28;20330;-37
2023/08/30 02:47:11;;;;;;;2.67;1.75;;;;;;;22.28;48.32;100830.25;5026389;28;20392;-36
2023/08/30 02:49:37;;;;;;;3.13;2.20;;;;;;;22.27;48.36;100820.44;5023806;28;20073;-37
2023/08/30 02:52:04;;;;;;;2.28;1.67;;;;;;;22.26;48.37;100826.88;5023417;28;20060;-37
2023/08/30 02:54:31;;;;;;;3.08;2.00;;;;;;;22.25;48.16;100819.81;5019878;28;20131;-36
2023/08/30 02:56:57;;;;;;;4.50;2.00;;;;;;;22.24;48.76;100810.03;5024976;28;20095;-37
2023/08/30 02:59:24;;;;;;;2.92;2.10;;;;;;;22.23;48.11;100795.69;5021918;28;20119;-36
2023/08/30 03:01:51;;;;;;;2.95;1.88;;;;;;;22.23;48.43;100798.41;5022248;28;20076;-37
2023/08/30 03:04:17;;;;;;;3.60;2.25;;;;;;;22.22;48.61;100793.16;5020757;28;20045;-36
2023/08/30 03:06:44;;;;;;;2.65;1.73;;;;;;;22.21;48.35;100795.03;5025752;28;20110;-37
2023/08/30 03:09:11;;;;;;;4.65;2.10;;;;;;;22.20;48.16;100782.56;5023754;28;20053;-37
2023/08/30 03:11:38;;;;;;;3.78;2.25;;;;;;;22.18;48.62;100782.72;5025121;28;20045;-36
2023/08/30 03:14:04;;;;;;;3.28;2.00;;;;;;;22.17;48.63;100780.22;5027045;28;20166;-37
2023/08/30 03:16:31;;;;;;;3.28;2.00;;;;;;;22.16;48.61;100779.38;5025293;28;20414;-37
2023/08/30 03:18:57;;;;;;;2.83;1.98;;;;;;;22.15;48.50;100772.31;5023568;28;20053;-37
2023/08/30 03:21:24;;;;;;;3.05;2.17;;;;;;;22.14;48.39;100775.19;5024371;28;20054;-36
2023/08/30 03:23:51;;;;;;;3.25;2.10;;;;;;;22.13;48.84;100771.66;5022577;28;20393;-37
2023/08/30 03:26:17;;;;;;;3.00;2.13;;;;;;;22.12;48.38;100767.25;5026907;28;20144;-37
2023/08/30 03:28:44;;;;;;;3.15;2.22;;;;;;;22.11;48.44;100762.88;5023250;28;20132;-37
2023/08/30 03:31:13;;;;;;;2.88;2.00;;;;;;;22.11;48.34;100753.91;5030810;28;20123;-37
2023/08/30 03:33:41;;;;;;;3.17;2.22;;;;;;;22.11;48.66;100752.06;5026535;28;20402;-36
2023/08/30 03:36:12;;;;;;;3.28;2.08;;;;;;;22.11;48.54;100752.06;5026470;28;20065;-37
2023/08/30 03:38:40;;;;;;;3.05;1.80;;;;;;;22.09;48.78;100740.59;5023626;28;20053;-36
2023/08/30 03:41:06;;;;;;;4.25;2.10;;;;;;;22.10;48.52;100742.28;5025491;28;20085;-37
2023/08/30 03:43:33;;;;;;;3.03;2.08;;;;;;;22.09;48.57;100740.59;5025344;28;20124;-37
2023/08/30 03:46:00;;;;;;;3.00;2.10;;;;;;;22.09;48.47;100739.78;5028859;28;20045;-37
2023/08/30 03:48:27;;;;;;;2.92;1.83;;;;;;;22.07;48.62;100734.56;5027313;28;20403;-37
2023/08/30 03:50:55;;;;;;;4.10;2.58;;;;;;;22.07;48.52;100728.31;5023117;28;20081;-37
2023/08/30 03:53:22;;;;;;;5.60;2.35;;;;;;;22.07;48.63;100733.69;5019531;28;20082;-37
2023/08/30 03:55:49;;;;;;;3.10;2.17;;;;;;;22.05;48.88;100728.50;5024362;28;20408;-37
2023/08/30 03:58:17;;;;;;;2.67;2.00;;;;;;;22.05;48.71;100728.50;5023594;28;20053;-37
2023/08/30 04:00:44;;;;;;;3.83;2.28;;;;;;;22.05;48.53;100727.66;5025155;28;20718;-36
2023/08/30 04:03:13;;;;;;;3.03;2.25;;;;;;;22.03;48.54;100725.16;5022111;28;20095;-37
2023/08/30 04:05:41;;;;;;;3.08;2.05;;;;;;;22.04;48.72;100724.13;5018840;28;20493;-37
2023/08/30 04:08:08;;;;;;;2.53;2.10;;;;;;;22.03;48.56;100725.16;5023227;28;20167;-36
2023/08/30 04:10:39;;;;;;;3.38;2.15;;;;;;;22.02;48.59;100723.47;5018878;28;20057;-37
2023/08/30 04:13:07;;;;;;;3.55;2.75;;;;;;;22.02;48.69;100725.31;5019551;28;20045;-37
2023/08/30 04:15:38;;;;;;;3.42;2.28;;;;;;;22.00;48.50;100716.59;5026871;28;20426;-36
2023/08/30 04:18:06;;;;;;;4.20;2.50;;;;;;;22.01;48.40;100724.50;5023236;28;20054;-37
2023/08/30 04:20:33;;;;;;;3.47;2.42;;;;;;;22.00;48.71;100722.81;5025095;28;20060;-37
2023/08/30 04:23:01;;;;;;;3.20;2.30;;;;;;;21.99;48.22;100718.44;5022580;28;20048;-36
2023/08/30 04:25:29;;;;;;;4.40;2.70;;;;;;;21.98;48.29;100716.75;5030714;28;20041;-37
2023/08/30 04:27:56;;;;;;;3.95;2.20;;;;;;;21.98;48.62;100714.06;5026348;28;20203;-36
2023/08/30 04:30:23;;;;;;;3.25;2.63;;;;;;;21.98;48.29;100708.66;5023717;28;20053;-36
2023/08/30 04:32:49;;;;;;;4.18;2.20;;;;;;;21.96;48.57;100699.91;5023956;28;20045;-37
2023/08/30 04:35:16;;;;;;;5.00;2.75;;;;;;;21.96;48.40;100699.09;5025095;28;20127;-36
2023/08/30 04:37:43;;;;;;;4.13;2.70;;;;;;;21.95;48.60;100706.34;5024209;28;20057;-37
2023/08/30 04:40:10;;;;;;;4.15;2.40;;;;;;;21.95;48.67;100700.94;5027806;28;20445;-37
2023/08/30 04:42:37;;;;;;;4.82;2.28;;;;;;;21.94;48.66;100701.94;5027947;28;20104;-36
2023/08/30 04:45:04;;;;;;;3.92;2.88;;;;;;;21.94;48.40;100707.34;5022406;28;20053;-36
2023/08/30 04:47:32;;;;;;;4.85;2.58;;;;;;;21.93;48.34;100695.72;5025665;28;20049;-36
2023/08/30 04:49:59;;;;;;;4.75;2.30;;;;;;;21.92;48.33;100682.41;5029872;28;20318;-36
2023/08/30 04:52:26;;;;;;;3.88;2.55;;;;;;;21.91;48.55;100681.59;5024205;28;20183;-37
2023/08/30 04:54:53;;;;;;;3.97;2.45;;;;;;;21.91;48.67;100680.75;5026561;28;20400;-37
2023/08/30 04:57:19;;;;;;;6.10;2.90;;;;;;;21.91;48.62;100683.44;5026582;28;20056;-36
2023/08/30 04:59:46;;;;;;;4.20;2.78;;;;;;;21.89;48.49;100677.38;5020612;28;20139;-36
2023/08/30 05:02:13;;;;;;;3.85;2.42;;;;;;;21.90;48.40;100677.19;5018324;28;20077;-36
2023/08/30 05:04:39;;;;;;;3.63;2.40;;;;;;;21.88;48.43;100673.84;5024302;28;20088;-36
2023/08/30 05:07:06;;;;;;;3.83;2.42;;;;;;;21.89;48.49;100680.06;5022577;28;20050;-37
2023/08/30 05:09:34;;;;;;;3.83;2.50;;;;;;;21.89;48.47;100677.38;5014593;28;20085;-37
2023/08/30 05:12:01;;;;;;;4.28;2.83;;;;;;;21.87;48.23;100674.88;5024156;28;20049;-36
2023/08/30 05:14:28;;;;;;;5.30;2.60;;;;;;;21.86;48.47;100675.88;5022200;28;20142;-37
2023/08/30 05:16:54;;;;;;;4.80;2.85;;;;;;;21.86;48.16;100672.34;5021223;28;20476;-36
2023/08/30 05:19:21;;;;;;;4.40;2.95;;;;;;;21.86;48.31;100678.56;5020106;28;20050;-38
2023/08/30 05:21:51;;;;;;;3.53;2.60;;;;;;;21.86;48.55;100681.28;5025038;28;20380;-37
2023/08/30 05:24:18;;;;;;;5.22;2.90;;;;;;;21.88;48.36;100678.41;5020271;28;20054;-36
2023/08/30 05:26:46;;;;;;;3.92;2.42;;;;;;;21.88;48.20;100690.03;5022472;28;20053;-37
2023/08/30 05:29:16;;;;;;;3.83;2.58;;;;;;;21.88;48.36;100691.91;5021064;28;20053;-37
2023/08/30 05:31:43;;;;;;;4.35;2.60;;;;;;;21.90;48.39;100697.94;5021517;28;20158;-36
2023/08/30 05:34:11;;;;;;;4.25;2.95;;;;;;;21.90;48.25;100701.47;5020377;28;20046;-36
2023/08/30 05:36:37;;;;;;;4.68;2.70;;;;;;;21.91;48.47;100703.16;5016801;28;20107;-37
2023/08/30 05:39:06;;;;;;;5.10;2.70;;;;;;;21.91;48.24;100708.56;5026826;28;20491;-37
2023/08/30 05:41:32;;;;;;;3.45;2.30;;;;;;;21.92;48.43;100706.69;5025135;28;20525;-37
2023/08/30 05:43:59;;;;;;;5.90;3.10;;;;;;;21.92;48.20;100706.69;5019390;28;20365;-37
2023/08/30 05:46:25;;;;;;;4.65;2.88;;;;;;;21.91;48.19;100705.03;5021761;28;20057;-37
2023/08/30 05:48:54;;;;;;;4.10;2.60;;;;;;;21.90;48.09;100704.16;5019834;28;20065;-37
2023/08/30 05:51:21;;;;;;;3.67;2.80;;;;;;;21.88;48.07;100691.91;5021548;28;20353;-37
2023/08/30 05:53:47;;;;;;;4.80;3.08;;;;;;;21.88;47.88;100694.59;5021786;28;20368;-37
2023/08/30 05:56:14;;;;;;;4.15;2.65;;;;;;;21.86;48.05;100692.06;5018729;28;20132;-37
2023/08/30 05:58:40;;;;;;;3.90;2.58;;;;;;;21.85;48.24;100693.09;5022673;28;20112;-37
2023/08/30 06:01:07;;;;;;;4.95;2.72;;;;;;;21.85;48.09;100690.41;5020893;28;20436;-37
2023/08/30 06:03:35;;;;;;;3.35;2.45;;;;;;;21.85;47.97;100692.25;5022761;28;20045;-37
2023/08/30 06:06:01;;;;;;;3.92;2.50;;;;;;;21.83;48.26;100680.78;5026709;28;20049;-37
2023/08/30 06:08:28;;;;;;;3.33;2.33;;;;;;;21.82;48.06;100688.06;5025846;28;20083;-37
2023/08/30 06:10:55;;;;;;;3.47;2.47;;;;;;;21.82;48.07;100681.81;5028068;28;20049;-37
2023/08/30 06:13:22;;;;;;;4.40;2.53;;;;;;;21.81;48.17;100680.16;5030529;28;20091;-37
2023/08/30 06:15:52;;;;;;;3.92;2.50;;;;;;;21.80;48.24;100679.31;5032730;28;20140;-37
2023/08/30 06:18:19;;;;;;;3.80;2.80;;;;;;;21.80;48.18;100678.47;5027700;28;20088;-37
2023/08/30 06:20:46;;;;;;;3.40;2.25;;;;;;;21.79;48.26;100668.69;5030606;28;20092;-37
2023/08/30 06:23:13;;;;;;;5.57;2.47;;;;;;;21.78;48.26;100667.84;5024100;28;20111;-37
2023/08/30 06:25:40;;;;;;;5.28;2.88;;;;;;;21.77;48.19;100666.19;5028634;28;20071;-37
2023/08/30 06:28:06;;;;;;;4.75;2.72;;;;;;;21.76;48.32;100661.81;5026732;28;20054;-37
2023/08/30 06:30:34;;;;;;;4.85;2.63;;;;;;;21.77;48.39;100658.09;5027856;28;20064;-37
2023/08/30 06:33:00;;;;;;;4.90;3.13;;;;;;;21.75;48.55;100648.50;5027742;28;20452;-37
2023/08/30 06:35:27;;;;;;;5.47;2.85;;;;;;;21.74;48.50;100644.97;5028836;28;20437;-38
2023/08/30 06:37:55;;;;;;;3.70;2.42;;;;;;;21.73;48.24;100643.28;5029241;28;20083;-37
2023/08/30 06:40:22;;;;;;;4.57;2.63;;;;;;;21.73;48.33;100639.75;5028149;28;20093;-37
2023/08/30 06:42:48;;;;;;;4.63;2.95;;;;;;;21.73;48.51;100646.00;5027752;28;20107;-37
2023/08/30 06:45:16;;;;;;;3.92;2.45;;;;;;;21.73;48.51;100650.56;5032855;28;20052;-37
2023/08/30 06:47:42;;;;;;;4.63;2.63;;;;;;;21.72;48.46;100644.31;5027887;28;20354;-37
2023/08/30 06:50:09;;;;;;;4.22;2.60;;;;;;;21.72;48.40;100635.41;5025719;28;20127;-37
2023/08/30 06:52:36;;;;;;;3.78;2.50;;;;;;;21.72;48.76;100632.69;5029676;28;20041;-37
2023/08/30 06:55:04;;;;;;;3.97;2.63;;;;;;;21.72;48.41;100638.09;5028960;28;20046;-37
2023/08/30 06:57:30;;;;;;;3.67;2.42;;;;;;;21.71;48.61;100631.88;5030990;28;20045;-37
2023/08/30 06:59:58;;;;;;;3.67;2.45;;;;;;;21.72;48.90;100632.69;5030185;28;20136;-37
2023/08/30 07:02:25;;;;;;;5.80;3.22;;;;;;;21.72;48.83;100635.41;5032303;28;20057;-37
2023/08/30 07:04:52;;;;;;;3.80;2.35;;;;;;;21.72;48.77;100632.69;5029665;28;20388;-37
2023/08/30 07:07:19;;;;;;;3.80;2.28;;;;;;;21.72;48.82;100632.69;5025486;28;20049;-37
2023/08/30 07:09:45;;;;;;;4.47;2.75;;;;;;;21.72;48.86;100624.59;5025492;28;20131;-37
2023/08/30 07:12:12;;;;;;;3.50;2.35;;;;;;;21.71;48.94;100621.06;5031749;28;20049;-37
2023/08/30 07:14:38;;;;;;;4.78;2.70;;;;;;;21.69;48.83;100613.16;5032330;28;20436;-37
2023/08/30 07:17:05;;;;;;;4.13;2.50;;;;;;;21.70;48.85;100603.19;5029083;28;20396;-37
2023/08/30 07:19:32;;;;;;;5.03;2.60;;;;;;;21.71;48.76;100604.03;5024358;28;20315;-37
2023/08/30 07:21:58;;;;;;;3.78;2.55;;;;;;;21.69;48.83;100596.13;5024994;28;20093;-37
2023/08/30 07:24:25;;;;;;;4.57;2.50;;;;;;;21.69;48.98;100598.81;5026693;28;20634;-37
2023/08/30 07:26:51;;;;;;;3.30;2.38;;;;;;;21.69;48.99;100598.81;5022575;28;20373;-37
2023/08/30 07:29:18;;;;;;;3.30;2.17;;;;;;;21.68;48.81;100592.59;5026868;28;20088;-37
2023/08/30 07:31:44;;;;;;;3.83;2.67;;;;;;;21.68;48.99;100584.50;5025690;28;20476;-37
2023/08/30 07:34:12;;;;;;;3.63;2.10;;;;;;;21.68;48.79;100578.28;5032111;28;20136;-37
2023/08/30 07:36:39;;;;;;;4.55;2.30;;;;;;;21.68;48.96;100565.63;5023437;28;20104;-37
2023/08/30 07:39:13;;;;;;;5.22;2.50;;;;;;;21.67;49.09;100558.56;5023015;28;20112;-37
2023/08/30 07:41:40;;;;;;;4.15;2.60;;;;;;;21.68;49.01;100556.69;5026359;28;20053;-37
2023/08/30 07:44:07;;;;;;;3.70;2.50;;;;;;;21.67;49.07;100563.94;5021144;28;20436;-37
2023/08/30 07:46:33;;;;;;;3.65;2.40;;;;;;;21.67;48.95;100566.66;5031005;28;20046;-38
2023/08/30 07:49:00;;;;;;;2.85;2.20;;;;;;;21.68;48.95;100557.53;5025404;28;20045;-37
2023/08/30 07:51:27;;;;;;;3.63;2.20;;;;;;;21.67;49.40;100561.25;5021164;28;20046;-37
2023/08/30 07:53:53;;;;;;;3.55;2.25;;;;;;;21.66;49.08;100562.25;5023962;28;20330;-37
2023/08/30 07:56:20;;;;;;;3.67;2.40;;;;;;;21.66;49.35;100554.16;5021264;28;20429;-37
2023/08/30 07:58:46;;;;;;;3.92;2.33;;;;;;;21.66;48.92;100559.56;5025766;28;20050;-37
2023/08/30 08:01:13;;;;;;;3.78;1.85;;;;;;;21.67;49.22;100555.03;5026729;28;20046;-37
2023/08/30 08:03:41;;;;;;;2.67;1.80;;;;;;;21.67;49.37;100557.72;5024718;28;20049;-37
2023/08/30 08:06:17;;;;;;;3.38;1.83;;;;;;;21.68;49.32;100556.69;5019307;28;20049;-37
2023/08/30 08:08:44;;;;;;;3.70;1.80;;;;;;;21.68;48.98;100554.00;5021651;28;20056;-37
2023/08/30 08:11:11;;;;;;;1.85;1.60;;;;;;;21.68;49.46;100556.69;5024937;28;20057;-37
2023/08/30 08:13:38;;;;;;;2.75;1.92;;;;;;;21.70;48.91;100549.25;5025657;28;20045;-37
2023/08/30 08:16:05;;;;;;;3.25;1.70;;;;;;;21.74;49.26;100555.09;5022637;28;20053;-37
2023/08/30 08:18:31;;;;;;;4.35;2.40;;;;;;;21.77;49.62;100560.13;5027853;28;20133;-37
2023/08/30 08:20:58;;;;;;;2.58;1.70;;;;;;;21.78;49.38;100557.25;5026911;28;20054;-37
2023/08/30 08:23:25;;;;;;;4.57;2.13;;;;;;;21.80;49.71;100557.06;5023601;28;20054;-37
2023/08/30 08:25:58;;;;;;;3.65;1.88;;;;;;;21.81;49.71;100551.47;5022687;28;20100;-37
2023/08/30 08:28:25;;;;;;;4.90;1.90;;;;;;;21.83;49.71;100557.53;5020723;28;20054;-37
2023/08/30 08:30:52;;;;;;;3.72;1.88;;;;;;;21.84;49.72;100556.50;5022845;28;20495;-37
2023/08/30 08:33:19;;;;;;;4.90;1.90;;;;;;;21.84;49.95;100558.38;5024268;28;20056;-37
2023/08/30 08:35:48;;;;;;;4.45;2.20;;;;;;;21.84;49.76;100556.50;5030277;28;20357;-37
2023/08/30 08:38:14;;;;;;;5.68;2.20;;;;;;;21.84;50.13;100558.38;5018243;28;20092;-38
2023/08/30 08:40:41;;;;;;;8.10;2.05;;;;;;;21.85;49.85;100551.94;5025598;28;20417;-37
2023/08/30 08:43:12;;;;;;;5.28;2.40;;;;;;;21.84;49.81;100552.97;5026389;28;20114;-37
2023/08/30 08:45:39;;;;;;;4.82;2.30;;;;;;;21.83;50.06;100552.16;5022732;28;20081;-37
2023/08/30 08:48:07;;;;;;;4.47;1.95;;;;;;;21.83;49.87;100548.59;5021852;28;20064;-37
2023/08/30 08:50:35;;;;;;;4.07;2.10;;;;;;;21.83;50.27;100543.19;5021575;28;20053;-37
2023/08/30 08:53:03;;;;;;;8.27;2.15;;;;;;;21.82;49.89;100536.97;5025437;28;20318;-37
2023/08/30 08:55:31;;;;;;;4.13;2.13;;;;;;;21.82;50.20;100536.13;5018705;28;20135;-37
2023/08/30 08:57:59;;;;;;;3.95;2.30;;;;;;;21.82;50.26;100538.81;5023100;28;20060;-37
2023/08/30 09:00:26;;;;;;;5.28;2.08;;;;;;;21.82;50.05;100539.66;5020993;28;20076;-37
2023/08/30 09:02:54;;;;;;;2.90;1.60;;;;;;;21.83;50.32;100535.97;5020283;28;20046;-37
2023/08/30 09:05:22;;;;;;;2.65;1.73;;;;;;;21.83;50.48;100532.41;5024430;28;20050;-37
2023/08/30 09:07:53;;;;;;;5.28;1.85;;;;;;;21.83;50.49;100540.50;5021835;28;20150;-37
2023/08/30 09:10:21;;;;;;;4.93;2.13;;;;;;;21.83;50.30;100538.66;5025062;28;20050;-37
2023/08/30 09:12:48;;;;;;;2.75;1.80;;;;;;;21.83;50.25;100540.50;5021242;28;20056;-37
2023/08/30 09:15:15;;;;;;;4.72;2.05;;;;;;;21.83;50.35;100532.41;5027416;28;20045;-37
2023/08/30 09:17:43;;;;;;;4.18;2.22;;;;;;;21.85;50.47;100535.75;5023281;28;20133;-38
2023/08/30 09:20:11;;;;;;;2.83;1.77;;;;;;;21.86;50.47;100534.72;5023013;28;20045;-37
2023/08/30 09:22:42;;;;;;;3.05;1.67;;;;;;;21.86;50.52;100524.78;5024678;28;20049;-37
2023/08/30 09:25:10;;;;;;;2.67;1.52;;;;;;;21.88;50.55;100540.78;5022267;28;20050;-37
2023/08/30 09:27:41;;;;;;;3.00;1.73;;;;;;;21.88;50.49;100535.41;5021695;28;20045;-37
2023/08/30 09:30:10;;;;;;;4.88;1.60;;;;;;;21.88;50.37;100540.78;5022618;28;20049;-38
2023/08/30 09:32:41;;;;;;;3.65;2.08;;;;;;;21.88;50.55;100533.53;5024338;28;20045;-37
2023/08/30 09:35:09;;;;;;;3.10;1.95;;;;;;;21.90;50.37;100539.56;5022290;28;20072;-37
2023/08/30 09:37:36;;;;;;;3.25;1.58;;;;;;;21.90;50.57;100539.56;5021059;28;20057;-37
2023/08/30 09:40:03;;;;;;;5.30;2.03;;;;;;;21.93;50.47;100535.66;5020952;28;20064;-37
2023/08/30 09:42:30;;;;;;;3.53;1.67;;;;;;;21.94;50.57;100526.53;5023915;28;20133;-37
2023/08/30 09:44:57;;;;;;;3.85;2.03;;;;;;;21.96;50.46;100529.06;5022906;28;20045;-37
2023/08/30 09:47:29;;;;;;;3.00;1.50;;;;;;;21.98;50.55;100527.84;5020655;28;20063;-37
2023/08/30 09:49:58;;;;;;;4.28;1.60;;;;;;;22.01;51.00;100524.78;5023083;28;20052;-37
2023/08/30 09:52:25;;;;;;;3.13;1.60;;;;;;;22.06;50.86;100524.19;5021078;28;21475;-37
2023/08/30 09:54:52;;;;;;;4.28;1.90;;;;;;;22.09;50.98;100523.84;5025996;28;20060;-37
2023/08/30 09:57:21;;;;;;;3.03;2.00;;;;;;;22.14;51.16;100530.34;5024854;28;20099;-37
2023/08/30 09:59:48;;;;;;;4.47;2.15;;;;;;;22.19;51.04;100532.50;5022863;28;20053;-37
2023/08/30 10:02:15;;;;;;;6.55;2.20;;;;;;;22.25;51.11;100525.53;5022312;28;20129;-38
2023/08/30 10:04:43;;;;;;;4.38;1.95;;;;;;;22.31;51.09;100535.53;5021879;28;20060;-37
2023/08/30 10:07:11;;;;;;;2.63;1.80;;;;;;;22.37;51.13;100543.72;5027059;28;20050;-37
2023/08/30 10:09:39;;;;;;;3.00;1.83;;;;;;;22.42;51.18;100538.59;5016717;28;20053;-37
2023/08/30 10:12:20;;;;;;;2.75;2.00;;;;;;;22.49;51.10;100535.97;5020558;28;20077;-37
2023/08/30 10:14:46;;;;;;;2.55;1.85;;;;;;;22.57;51.11;100541.25;5022963;28;20132;-37
2023/08/30 10:17:17;;;;;;;2.45;1.60;;;;;;;22.63;50.73;100536.94;5024305;28;20557;-37
2023/08/30 10:19:45;;;;;;;3.40;1.88;;;;;;;22.70;50.54;100540.56;5021872;28;20050;-37
2023/08/30 10:22:15;;;;;;;4.07;1.85;;;;;;;22.75;50.32;100537.28;5019274;28;20053;-37
2023/08/30 10:24:52;;;;;;;8.55;1.95;;;;;;;22.81;50.44;100555.44;5018679;28;20288;-37
2023/08/30 10:27:37;;;;;;;;;;;;;;;22.87;50.14;100554.66;5023020;28;20053;-37
2023/08/30 10:30:06;;;;;;;5.30;1.88;;;;;;;22.95;49.85;100556.44;5019992;28;20316;-37
2023/08/30 10:32:39;;;;;;;4.00;1.77;;;;;;;22.94;49.73;100555.59;5017435;28;20053;-37
2023/08/30 10:35:05;;;;;;;8.55;1.83;;;;;;;22.95;49.14;100554.56;5020138;28;20057;-38
2023/08/30 10:37:32;;;;;;;5.78;1.48;;;;;;;22.97;49.10;100557.09;5019804;28;20045;-38
2023/08/30 10:40:03;;;;;;;3.00;1.90;;;;;;;22.97;49.35;100565.19;5026854;28;20045;-38
2023/08/30 10:42:30;;;;;;;7.55;1.75;;;;;;;22.97;48.57;100563.31;5020047;28;20041;-38
2023/08/30 10:45:02;;;;;;;5.30;1.90;;;;;;;22.98;48.76;100558.75;5021598;28;20046;-38
2023/08/30 10:47:40;;;;;;;2.78;1.65;;;;;;;22.99;49.10;100561.25;5020950;28;20049;-38
2023/08/30 10:50:10;;;;;;;4.07;1.85;;;;;;;22.99;49.59;100561.25;5022458;28;20104;-38
2023/08/30 10:52:37;;;;;;;4.57;1.83;;;;;;;22.99;48.87;100569.38;5016898;28;20056;-38
2023/08/30 10:55:12;;;;;;;6.13;1.75;;;;;;;22.99;49.14;100572.06;5021372;28;20522;-37
2023/08/30 10:57:43;;;;;;;6.20;1.77;;;;;;;22.97;48.85;100571.44;5025914;28;20124;-38
2023/08/30 11:00:17;;;;;;;9.88;2.00;;;;;;;22.97;48.69;100571.44;5026278;28;20062;-38
2023/08/30 11:02:48;;;;;;;5.93;1.92;;;;;;;22.98;48.99;100585.78;5028321;28;20077;-38
2023/08/30 11:05:20;;;;;;;8.18;1.80;;;;;;;22.98;48.78;100575.81;5026218;28;20037;-38
2023/08/30 11:07:49;;;;;;;5.97;2.50;;;;;;;23.01;48.74;100577.28;5023795;28;20056;-37
2023/08/30 11:10:16;;;;;;;7.68;1.80;;;;;;;23.01;48.68;100575.44;5024915;28;20475;-38
2023/08/30 11:12:44;;;;;;;6.78;1.90;;;;;;;23.04;49.04;100574.22;5023157;28;20063;-38
2023/08/30 11:15:14;;;;;;;5.78;2.13;;;;;;;23.08;48.59;100581.75;5025706;28;20099;-38
2023/08/30 11:17:44;;;;;;;7.18;1.73;;;;;;;23.11;48.88;100580.50;5024133;28;20132;-38
2023/08/30 11:20:14;;;;;;;4.72;1.67;;;;;;;23.12;48.21;100576.78;5027355;28;20048;-38
2023/08/30 11:22:46;;;;;;;11.77;2.20;;;;;;;23.13;48.60;100571.16;5025453;28;20386;-38
2023/08/30 11:25:13;;;;;;;8.75;2.10;;;;;;;23.16;48.66;100580.78;5027620;28;20049;-38
2023/08/30 11:27:41;;;;;;;6.38;1.80;;;;;;;23.16;48.58;100578.06;5024617;28;20507;-38